createdAt,value
2023-01-12T00:02:21.877Z,99518.80
2023-01-12T00:04:49.700Z,99496.20
2023-01-12T00:07:18.138Z,99490.80
2023-01-12T00:09:46.011Z,99488.20
2023-01-12T00:12:13.852Z,99474.80
2023-01-12T00:14:41.639Z,99466.40
2023-01-12T00:17:11.788Z,99469.80
2023-01-12T00:19:40.113Z,99463.00
2023-01-12T00:22:11.650Z,99442.20
2023-01-12T00:24:47.919Z,99445.20
2023-01-12T00:27:19.963Z,99438.60
2023-01-12T00:29:51.400Z,99433.20
2023-01-12T00:32:20.967Z,99438.20
2023-01-12T00:34:48.975Z,99424.60
2023-01-12T00:37:16.991Z,99422.60
2023-01-12T00:39:53.151Z,99420.80
2023-01-12T00:42:47.585Z,99420.80
2023-01-12T00:45:24.921Z,99410.20
2023-01-12T00:47:53.910Z,99413.00
2023-01-12T00:50:22.524Z,99405.00
2023-01-12T00:52:50.462Z,99416.80
2023-01-12T00:55:18.445Z,99407.40
2023-01-12T00:57:46.303Z,99407.00
2023-01-12T01:00:15.638Z,99405.40
2023-01-12T01:02:43.422Z,99400.00
2023-01-12T01:05:11.239Z,99388.00
2023-01-12T01:07:39.299Z,99383.20
2023-01-12T01:10:08.070Z,99388.40
2023-01-12T01:12:36.120Z,99383.80
2023-01-12T01:15:04.386Z,99376.80
2023-01-12T01:17:32.355Z,99378.40
2023-01-12T01:20:00.199Z,99375.60
2023-01-12T01:22:28.039Z,99369.40
2023-01-12T01:24:55.922Z,99358.80
2023-01-12T01:27:23.795Z,99363.60
2023-01-12T01:29:51.511Z,99355.40
2023-01-12T01:32:19.550Z,99356.80
2023-01-12T01:34:48.169Z,99358.60
2023-01-12T01:37:15.941Z,99352.60
2023-01-12T01:39:43.751Z,99341.20
2023-01-12T01:42:28.170Z,99342.80
2023-01-12T01:44:59.972Z,99336.20
2023-01-12T01:47:43.741Z,99336.60
2023-01-12T01:50:35.169Z,99330.80
2023-01-12T01:53:12.415Z,99341.20
2023-01-12T01:56:04.057Z,99331.00
2023-01-12T01:58:43.156Z,99321.80
2023-01-12T02:01:11.137Z,99333.00
2023-01-12T02:03:40.413Z,99323.40
2023-01-12T02:06:09.238Z,99325.60
2023-01-12T02:08:53.813Z,99328.60
2023-01-12T02:11:40.637Z,99337.40
2023-01-12T02:14:29.196Z,99336.80
2023-01-12T02:17:26.522Z,99336.60
2023-01-12T02:20:46.442Z,99332.60
2023-01-12T02:23:58.422Z,99336.60
2023-01-12T02:26:50.532Z,99343.80
2023-01-12T02:29:51.902Z,99332.00
2023-01-12T02:32:44.505Z,99344.60
2023-01-12T02:35:42.008Z,99347.00
2023-01-12T02:38:46.810Z,99342.80
2023-01-12T02:41:55.142Z,99334.80
2023-01-12T02:45:16.520Z,99331.40
2023-01-12T02:48:10.720Z,99333.40
2023-01-12T02:51:09.488Z,99336.40
2023-01-12T02:53:50.737Z,99329.60
2023-01-12T02:56:31.619Z,99330.20
2023-01-12T02:59:07.378Z,99325.60
2023-01-12T03:01:37.693Z,99329.80
2023-01-12T03:04:09.010Z,99332.40
2023-01-12T03:07:05.573Z,99329.20
2023-01-12T03:09:37.303Z,99330.80
2023-01-12T03:12:16.546Z,99323.40
2023-01-12T03:14:49.847Z,99332.40
2023-01-12T03:17:34.696Z,99327.20
2023-01-12T03:20:27.257Z,99326.60
2023-01-12T03:23:03.001Z,99326.40
2023-01-12T03:25:33.697Z,99327.80
2023-01-12T03:28:06.761Z,99324.40
2023-01-12T03:30:50.171Z,99326.00
2023-01-12T03:33:17.880Z,99321.20
2023-01-12T03:36:11.983Z,99328.60
2023-01-12T03:39:14.309Z,99325.80
2023-01-12T03:42:10.021Z,99330.60
2023-01-12T03:44:56.488Z,99330.00
2023-01-12T03:47:31.973Z,99337.20
2023-01-12T03:50:05.911Z,99333.20
2023-01-12T03:52:39.436Z,99339.40
2023-01-12T03:55:14.267Z,99326.60
2023-01-12T03:57:44.974Z,99342.60
2023-01-12T04:00:14.870Z,99332.80
2023-01-12T04:02:46.738Z,99336.00
2023-01-12T04:05:15.711Z,99329.40
2023-01-12T04:07:43.392Z,99329.60
2023-01-12T04:10:11.496Z,99324.60
2023-01-12T04:12:39.184Z,99323.80
2023-01-12T04:15:07.699Z,99325.60
2023-01-12T04:17:35.476Z,99324.80
2023-01-12T04:20:04.507Z,99318.40
2023-01-12T04:22:44.044Z,99326.20
2023-01-12T04:25:16.212Z,99328.40
2023-01-12T04:28:04.205Z,99332.00
2023-01-12T04:30:34.062Z,99333.40
2023-01-12T04:33:08.128Z,99327.60
2023-01-12T04:35:35.896Z,99328.20
2023-01-12T04:38:09.850Z,99331.00
2023-01-12T04:40:37.579Z,99327.80
2023-01-12T04:43:08.287Z,99327.60
2023-01-12T04:45:40.753Z,99327.40
2023-01-12T04:48:12.160Z,99325.40
2023-01-12T04:50:41.081Z,99332.60
2023-01-12T04:53:12.142Z,99322.20
2023-01-12T04:55:45.165Z,99328.80
2023-01-12T04:58:13.039Z,99322.40
2023-01-12T05:00:40.777Z,99321.60
2023-01-12T05:03:13.025Z,99319.80
2023-01-12T05:05:41.773Z,99315.60
2023-01-12T05:08:28.655Z,99316.60
2023-01-12T05:11:00.329Z,99319.00
2023-01-12T05:13:31.576Z,99310.00
2023-01-12T05:16:16.842Z,99310.00
2023-01-12T05:18:46.118Z,99316.60
2023-01-12T05:21:17.920Z,99316.40
2023-01-12T05:23:46.015Z,99318.00
2023-01-12T05:26:13.760Z,99312.40
2023-01-12T05:28:41.747Z,99325.60
2023-01-12T05:31:14.166Z,99308.40
2023-01-12T05:33:42.981Z,99311.20
2023-01-12T05:36:14.327Z,99314.60
2023-01-12T05:38:42.437Z,99312.00
2023-01-12T05:41:14.435Z,99309.20
2023-01-12T05:43:52.176Z,99303.60
2023-01-12T05:46:27.356Z,99307.80
2023-01-12T05:48:57.750Z,99297.60
2023-01-12T05:51:27.641Z,99309.00
2023-01-12T05:53:55.380Z,99303.20
2023-01-12T05:56:26.458Z,99303.00
2023-01-12T05:59:00.960Z,99293.80
2023-01-12T06:01:30.209Z,99305.80
2023-01-12T06:04:01.020Z,99299.40
2023-01-12T06:06:31.408Z,99300.40
2023-01-12T06:09:00.995Z,99304.60
2023-01-12T06:11:47.703Z,99311.40
2023-01-12T06:14:16.563Z,99319.20
2023-01-12T06:16:44.547Z,99329.40
2023-01-12T06:19:13.266Z,99331.60
2023-01-12T06:21:41.578Z,99333.60
2023-01-12T06:24:09.792Z,99331.40
2023-01-12T06:26:38.157Z,99356.00
2023-01-12T06:29:07.167Z,99350.00
2023-01-12T06:31:35.014Z,99355.20
2023-01-12T06:34:02.893Z,99348.60
2023-01-12T06:36:30.707Z,99353.80
2023-01-12T06:38:58.414Z,99359.00
2023-01-12T06:41:44.760Z,99370.00
2023-01-12T06:44:12.570Z,99362.60
2023-01-12T06:46:40.414Z,99373.40
2023-01-12T06:49:08.105Z,99377.40
2023-01-12T06:51:35.988Z,99378.60
2023-01-12T06:54:03.879Z,99387.20
2023-01-12T06:56:31.785Z,99380.00
2023-01-12T06:59:00.034Z,99388.20
2023-01-12T07:01:27.876Z,99388.40
2023-01-12T07:03:55.749Z,99390.80
2023-01-12T07:06:23.495Z,99388.80
2023-01-12T07:08:51.250Z,99390.60
2023-01-12T07:11:18.980Z,99393.80
2023-01-12T07:13:46.723Z,99395.00
2023-01-12T07:16:14.594Z,99399.80
2023-01-12T07:18:42.705Z,99402.60
2023-01-12T07:21:13.501Z,99399.40
2023-01-12T07:23:44.321Z,99408.00
2023-01-12T07:26:12.462Z,99405.80
2023-01-12T07:28:40.284Z,99412.40
2023-01-12T07:31:09.214Z,99413.40
2023-01-12T07:33:38.467Z,99414.00
2023-01-12T07:36:06.546Z,99419.00
2023-01-12T07:38:34.765Z,99429.40
2023-01-12T07:41:04.122Z,99427.00
2023-01-12T07:43:33.578Z,99431.80
2023-01-12T07:46:01.928Z,99438.60
2023-01-12T07:48:30.690Z,99437.00
2023-01-12T07:50:59.457Z,99432.80
2023-01-12T07:53:27.349Z,99434.00
2023-01-12T07:55:55.152Z,99435.00
2023-01-12T07:58:23.027Z,99436.00
2023-01-12T08:00:51.110Z,99438.00
2023-01-12T08:03:18.895Z,99436.60
2023-01-12T08:05:46.749Z,99439.20
2023-01-12T08:08:14.489Z,99436.60
2023-01-12T08:10:43.608Z,99437.80
2023-01-12T08:13:11.342Z,99434.40
2023-01-12T08:15:46.629Z,99435.40
2023-01-12T08:18:23.700Z,99435.40
2023-01-12T08:20:54.863Z,99440.60
2023-01-12T08:23:33.323Z,99439.80
2023-01-12T08:26:06.640Z,99440.20
2023-01-12T08:28:43.246Z,99435.40
2023-01-12T08:31:14.983Z,99443.60
2023-01-12T08:33:43.732Z,99441.00
2023-01-12T08:36:15.744Z,99444.20
2023-01-12T08:38:43.703Z,99444.80
2023-01-12T08:41:30.567Z,99440.40
2023-01-12T08:44:07.508Z,99447.60
2023-01-12T08:46:52.129Z,99444.80
2023-01-12T08:49:24.949Z,99445.20
2023-01-12T08:51:52.897Z,99441.20
2023-01-12T08:54:22.366Z,99436.80
2023-01-12T08:56:50.565Z,99435.40
2023-01-12T08:59:19.255Z,99434.20
2023-01-12T09:01:47.640Z,99428.60
2023-01-12T09:04:15.691Z,99429.00
2023-01-12T09:06:45.571Z,99428.60
2023-01-12T09:09:17.209Z,99430.20
2023-01-12T09:11:47.062Z,99429.00
2023-01-12T09:14:16.092Z,99431.20
2023-01-12T09:16:44.907Z,99425.00
2023-01-12T09:19:12.884Z,99429.40
2023-01-12T09:21:42.160Z,99432.20
2023-01-12T09:24:12.186Z,99432.00
2023-01-12T09:26:46.220Z,99431.60
2023-01-12T09:29:15.153Z,99435.20
2023-01-12T09:31:45.895Z,99441.00
2023-01-12T09:34:13.998Z,99450.60
2023-01-12T09:36:42.722Z,99450.40
2023-01-12T09:39:26.959Z,99450.80
2023-01-12T09:42:16.156Z,99455.40
2023-01-12T09:45:11.531Z,99448.00
2023-01-12T09:47:53.362Z,99456.80
2023-01-12T09:50:28.353Z,99448.20
2023-01-12T09:53:10.339Z,99438.80
2023-01-12T09:56:02.591Z,99444.60
2023-01-12T09:58:51.947Z,99441.20
2023-01-12T10:01:29.355Z,99439.20
2023-01-12T10:04:01.711Z,99442.60
2023-01-12T10:06:30.235Z,99438.40
2023-01-12T10:09:09.957Z,99437.40
2023-01-12T10:11:57.738Z,99437.60
2023-01-12T10:14:56.567Z,99434.80
2023-01-12T10:17:38.611Z,99433.20
2023-01-12T10:20:41.759Z,99437.40
2023-01-12T10:23:09.454Z,99427.80
2023-01-12T10:25:48.898Z,99425.00
2023-01-12T10:28:30.981Z,99428.80
2023-01-12T10:30:59.693Z,99426.60
2023-01-12T10:33:32.755Z,99420.60
2023-01-12T10:36:08.934Z,99416.40
2023-01-12T10:38:39.249Z,99419.40
2023-01-12T10:41:17.423Z,99417.00
2023-01-12T10:44:07.282Z,99409.80
2023-01-12T10:46:35.927Z,99410.00
2023-01-12T10:49:25.175Z,99394.80
2023-01-12T10:52:21.847Z,99399.60
2023-01-12T10:54:49.698Z,99394.80
2023-01-12T10:57:24.162Z,99391.80
2023-01-12T11:00:02.834Z,99392.20
2023-01-12T11:02:44.014Z,99381.40
2023-01-12T11:05:38.474Z,99381.00
2023-01-12T11:08:23.612Z,99376.20
2023-01-12T11:10:51.439Z,99378.80
2023-01-12T11:13:36.468Z,99384.80
2023-01-12T11:16:45.009Z,99375.60
2023-01-12T11:19:31.604Z,99369.40
2023-01-12T11:22:27.489Z,99362.40
2023-01-12T11:25:02.795Z,99361.20
2023-01-12T11:27:47.511Z,99352.20
2023-01-12T11:30:27.129Z,99350.20
2023-01-12T11:33:38.746Z,99348.60
2023-01-12T11:36:18.020Z,99342.60
2023-01-12T11:39:04.542Z,99339.80
2023-01-12T11:41:43.441Z,99344.80
2023-01-12T11:44:31.825Z,99333.20
2023-01-12T11:47:06.445Z,99330.80
2023-01-12T11:49:44.369Z,99321.40
2023-01-12T11:52:15.491Z,99320.60
2023-01-12T11:54:43.622Z,99317.20
2023-01-12T11:57:56.409Z,99318.20
2023-01-12T12:00:42.849Z,99310.40
2023-01-12T12:03:38.756Z,99314.40
2023-01-12T12:06:46.488Z,99310.60
2023-01-12T12:09:37.799Z,99317.00
2023-01-12T12:12:26.703Z,99312.00
2023-01-12T12:15:25.113Z,99310.00
2023-01-12T12:18:30.376Z,99311.40
2023-01-12T12:21:32.985Z,99308.20
2023-01-12T12:24:14.886Z,99306.20
2023-01-12T12:26:58.988Z,99295.40
2023-01-12T12:29:42.547Z,99295.00
2023-01-12T12:32:44.161Z,99290.00
2023-01-12T12:35:41.398Z,99282.80
2023-01-12T12:39:06.738Z,99285.40
2023-01-12T12:42:40.125Z,99274.00
2023-01-12T12:45:39.163Z,99268.60
2023-01-12T12:48:32.390Z,99260.00
2023-01-12T12:51:08.025Z,99256.00
2023-01-12T12:53:42.133Z,99259.60
2023-01-12T12:56:17.865Z,99251.80
2023-01-12T12:58:50.295Z,99242.00
2023-01-12T13:01:24.556Z,99239.60
2023-01-12T13:03:56.069Z,99234.40
2023-01-12T13:06:29.558Z,99230.20
2023-01-12T13:09:25.194Z,99228.80
2023-01-12T13:11:59.660Z,99230.20
2023-01-12T13:14:31.501Z,99227.00
2023-01-12T13:17:20.495Z,99224.60
2023-01-12T13:20:02.244Z,99220.60
2023-01-12T13:22:34.739Z,99212.40
2023-01-12T13:25:19.339Z,99199.20
2023-01-12T13:27:57.709Z,99197.80
2023-01-12T13:30:28.564Z,99200.20
2023-01-12T13:33:00.627Z,99187.60
2023-01-12T13:35:48.263Z,99192.00
2023-01-12T13:38:39.216Z,99191.40
2023-01-12T13:41:50.178Z,99199.80
2023-01-12T13:44:31.532Z,99191.80
2023-01-12T13:47:09.653Z,99184.00
2023-01-12T13:49:47.699Z,99186.20
2023-01-12T13:52:32.431Z,99187.80
2023-01-12T13:55:00.696Z,99186.80
2023-01-12T13:57:31.348Z,99181.60
2023-01-12T14:00:09.097Z,99196.00
2023-01-12T14:02:40.709Z,99195.80
2023-01-12T14:05:59.198Z,99205.00
2023-01-12T14:09:17.828Z,99196.80
2023-01-12T14:12:13.587Z,99195.20
2023-01-12T14:15:30.578Z,99198.00
2023-01-12T14:18:16.610Z,99193.40
2023-01-12T14:20:47.628Z,99194.40
2023-01-12T14:23:20.239Z,99197.40
2023-01-12T14:26:09.197Z,99196.80
2023-01-12T14:28:40.212Z,99189.00
2023-01-12T14:31:30.531Z,99179.80
2023-01-12T14:34:04.538Z,99187.60
2023-01-12T14:36:44.053Z,99189.80
2023-01-12T14:39:20.587Z,99197.60
2023-01-12T14:42:13.133Z,99205.00
2023-01-12T14:45:10.553Z,99207.80
2023-01-12T14:47:38.904Z,99193.40
2023-01-12T14:50:12.692Z,99193.60
2023-01-12T14:52:46.560Z,99196.80
2023-01-12T14:55:41.752Z,99201.80
2023-01-12T14:58:22.251Z,99206.40
2023-01-12T15:00:50.196Z,99202.20
2023-01-12T15:03:35.161Z,99207.00
2023-01-12T15:06:05.011Z,99210.80
2023-01-12T15:08:34.457Z,99209.00
2023-01-12T15:11:09.117Z,99200.60
2023-01-12T15:13:38.267Z,99207.20
2023-01-12T15:16:25.488Z,99201.00
2023-01-12T15:19:11.974Z,99204.80
2023-01-12T15:22:01.971Z,99197.80
2023-01-12T15:24:54.344Z,99201.60
2023-01-12T15:27:23.534Z,99206.40
2023-01-12T15:29:51.914Z,99182.00
2023-01-12T15:32:46.185Z,99186.20
2023-01-12T15:35:23.505Z,99189.60
2023-01-12T15:37:55.254Z,99194.40
2023-01-12T15:40:26.420Z,99199.00
2023-01-12T15:42:54.544Z,99205.40
2023-01-12T15:45:35.244Z,99205.20
2023-01-12T15:48:05.354Z,99202.40
2023-01-12T15:50:34.233Z,99211.20
2023-01-12T15:53:02.589Z,99215.40
2023-01-12T15:55:31.397Z,99212.40
2023-01-12T15:57:59.164Z,99223.00
2023-01-12T16:00:26.986Z,99217.80
2023-01-12T16:02:54.890Z,99219.60
2023-01-12T16:05:26.233Z,99226.60
2023-01-12T16:07:54.893Z,99229.40
2023-01-12T16:10:23.917Z,99221.60
2023-01-12T16:12:52.827Z,99227.80
2023-01-12T16:15:26.252Z,99218.00
2023-01-12T16:17:54.302Z,99223.00
2023-01-12T16:20:22.451Z,99211.40
2023-01-12T16:22:50.863Z,99225.20
2023-01-12T16:25:18.727Z,99225.20
2023-01-12T16:27:46.475Z,99239.00
2023-01-12T16:30:15.870Z,99243.00
2023-01-12T16:32:46.796Z,99245.40
2023-01-12T16:35:15.617Z,99255.60
2023-01-12T16:37:44.483Z,99261.40
2023-01-12T16:40:12.979Z,99270.20
2023-01-12T16:42:40.704Z,99270.40
2023-01-12T16:45:09.936Z,99275.60
2023-01-12T16:47:37.891Z,99268.20
2023-01-12T16:50:06.292Z,99279.80
2023-01-12T16:52:34.355Z,99292.60
2023-01-12T16:55:02.099Z,99295.40
2023-01-12T16:57:29.795Z,99288.60
2023-01-12T16:59:57.571Z,99295.20
2023-01-12T17:02:25.929Z,99304.60
2023-01-12T17:04:54.281Z,99319.40
2023-01-12T17:07:22.393Z,99319.80
2023-01-12T17:09:50.252Z,99324.40
2023-01-12T17:12:18.500Z,99320.80
2023-01-12T17:14:46.487Z,99325.20
2023-01-12T17:17:14.337Z,99322.40
2023-01-12T17:19:45.460Z,99323.00
2023-01-12T17:22:14.297Z,99331.80
2023-01-12T17:24:42.225Z,99334.40
2023-01-12T17:27:10.906Z,99322.60
2023-01-12T17:29:38.788Z,99324.40
2023-01-12T17:32:08.289Z,99332.40
2023-01-12T17:34:39.260Z,99334.60
2023-01-12T17:37:10.544Z,99339.60
2023-01-12T17:39:40.674Z,99335.40
2023-01-12T17:42:37.187Z,99341.20
2023-01-12T17:45:05.941Z,99350.80
2023-01-12T17:47:33.780Z,99340.80
2023-01-12T17:50:01.587Z,99339.20
2023-01-12T17:52:29.396Z,99347.20
2023-01-12T17:54:57.150Z,99344.60
2023-01-12T17:57:25.053Z,99358.20
2023-01-12T17:59:53.100Z,99353.00
2023-01-12T18:02:21.237Z,99356.00
2023-01-12T18:04:49.142Z,99341.40
2023-01-12T18:07:16.967Z,99344.60
2023-01-12T18:09:44.868Z,99358.40
2023-01-12T18:12:12.942Z,99357.40
2023-01-12T18:14:40.753Z,99361.00
2023-01-12T18:17:11.017Z,99357.80
2023-01-12T18:19:40.190Z,99359.80
2023-01-12T18:22:10.858Z,99364.80
2023-01-12T18:24:38.848Z,99369.00
2023-01-12T18:27:06.622Z,99379.40
2023-01-12T18:29:34.687Z,99397.20
2023-01-12T18:32:02.430Z,99426.00
2023-01-12T18:34:30.510Z,99399.40
2023-01-12T18:36:58.246Z,99394.20
2023-01-12T18:39:26.046Z,99409.20
2023-01-12T18:42:12.824Z,99403.00
2023-01-12T18:44:40.579Z,99393.00
2023-01-12T18:47:33.228Z,99383.20
2023-01-12T18:50:20.969Z,99392.40
2023-01-12T18:53:07.434Z,99387.60
2023-01-12T18:55:37.342Z,99380.60
2023-01-12T18:58:05.127Z,99382.80
2023-01-12T19:00:33.012Z,99379.00
2023-01-12T19:03:01.151Z,99379.60
2023-01-12T19:05:36.499Z,99376.80
2023-01-12T19:08:25.766Z,99371.60
2023-01-12T19:10:54.251Z,99362.20
2023-01-12T19:13:40.585Z,99361.00
2023-01-12T19:16:32.389Z,99353.20
2023-01-12T19:19:00.136Z,99358.80
2023-01-12T19:21:46.290Z,99348.40
2023-01-12T19:24:36.728Z,99355.80
2023-01-12T19:27:23.585Z,99359.40
2023-01-12T19:29:51.404Z,99367.00
2023-01-12T19:32:19.196Z,99373.40
2023-01-12T19:34:47.071Z,99370.00
2023-01-12T19:37:15.303Z,99372.60
2023-01-12T19:39:46.336Z,99371.80
2023-01-12T19:42:32.922Z,99380.60
2023-01-12T19:45:00.623Z,99382.20
2023-01-12T19:47:28.355Z,99384.40
2023-01-12T19:49:56.140Z,99376.20
2023-01-12T19:52:24.219Z,99383.00
2023-01-12T19:54:52.128Z,99379.00
2023-01-12T19:57:20.050Z,99365.60
2023-01-12T19:59:48.292Z,99366.00
2023-01-12T20:02:16.036Z,99361.80
2023-01-12T20:04:43.824Z,99371.80
2023-01-12T20:07:11.914Z,99369.00
2023-01-12T20:09:39.631Z,99373.80
2023-01-12T20:12:07.532Z,99370.80
2023-01-12T20:14:35.212Z,99382.20
2023-01-12T20:17:02.927Z,99392.80
2023-01-12T20:19:30.889Z,99398.60
2023-01-12T20:21:58.749Z,99392.20
2023-01-12T20:24:26.756Z,99384.60
2023-01-12T20:26:54.715Z,99388.20
2023-01-12T20:29:23.555Z,99394.00
2023-01-12T20:31:52.769Z,99394.80
2023-01-12T20:34:21.192Z,99392.40
2023-01-12T20:36:49.221Z,99383.00
2023-01-12T20:39:16.970Z,99377.00
2023-01-12T20:41:44.743Z,99372.20
2023-01-12T20:44:16.910Z,99374.40
2023-01-12T20:46:45.387Z,99370.60
2023-01-12T20:49:13.201Z,99370.80
2023-01-12T20:51:41.024Z,99392.80
2023-01-12T20:54:10.355Z,99389.40
2023-01-12T20:56:38.191Z,99393.00
2023-01-12T20:59:06.373Z,99384.20
2023-01-12T21:01:34.740Z,99382.40
2023-01-12T21:04:02.573Z,99385.20
2023-01-12T21:06:31.458Z,99383.20
2023-01-12T21:08:59.351Z,99384.80
2023-01-12T21:11:27.815Z,99386.60
2023-01-12T21:13:56.694Z,99386.20
2023-01-12T21:16:24.430Z,99385.80
2023-01-12T21:18:52.327Z,99383.40
2023-01-12T21:21:20.124Z,99398.20
2023-01-12T21:23:47.996Z,99389.20
2023-01-12T21:26:16.096Z,99384.80
2023-01-12T21:28:43.953Z,99385.00
2023-01-12T21:31:13.023Z,99391.00
2023-01-12T21:33:41.184Z,99395.20
2023-01-12T21:36:13.415Z,99391.80
2023-01-12T21:38:41.337Z,99393.00
2023-01-12T21:41:11.482Z,99400.20
2023-01-12T21:43:39.247Z,99397.60
2023-01-12T21:46:10.482Z,99417.40
2023-01-12T21:48:38.555Z,99412.80
2023-01-12T21:51:13.404Z,99415.80
2023-01-12T21:53:43.981Z,99408.80
2023-01-12T21:56:13.369Z,99398.60
2023-01-12T21:58:41.190Z,99384.80
2023-01-12T22:01:14.938Z,99396.00
2023-01-12T22:03:42.890Z,99396.40
2023-01-12T22:06:13.526Z,99397.00
2023-01-12T22:08:42.401Z,99394.80
2023-01-12T22:11:14.349Z,99392.00
2023-01-12T22:13:43.615Z,99387.80
2023-01-12T22:16:15.163Z,99396.00
2023-01-12T22:18:47.195Z,99392.20
2023-01-12T22:21:17.243Z,99384.60
2023-01-12T22:23:45.685Z,99385.60
2023-01-12T22:26:16.698Z,99385.40
2023-01-12T22:28:49.727Z,99388.20
2023-01-12T22:31:23.993Z,99391.40
2023-01-12T22:34:07.156Z,99396.40
2023-01-12T22:36:43.222Z,99385.60
2023-01-12T22:39:12.322Z,99383.40
2023-01-12T22:41:41.201Z,99375.20
2023-01-12T22:44:09.029Z,99371.40
2023-01-12T22:46:36.904Z,99369.00
2023-01-12T22:49:04.925Z,99352.80
2023-01-12T22:51:33.156Z,99348.00
2023-01-12T22:54:01.063Z,99354.00
2023-01-12T22:56:28.954Z,99354.40
2023-01-12T22:58:56.812Z,99339.60
2023-01-12T23:01:26.064Z,99355.60
2023-01-12T23:03:58.295Z,99362.00
2023-01-12T23:06:26.696Z,99367.60
2023-01-12T23:08:54.630Z,99365.00
2023-01-12T23:11:26.475Z,99365.60
2023-01-12T23:13:54.844Z,99360.80
2023-01-12T23:16:23.224Z,99350.00
2023-01-12T23:18:51.644Z,99352.60
2023-01-12T23:21:28.372Z,99350.40
2023-01-12T23:23:59.724Z,99355.00
2023-01-12T23:26:32.556Z,99348.80
2023-01-12T23:29:02.869Z,99345.00
2023-01-12T23:31:33.502Z,99332.40
2023-01-12T23:34:01.683Z,99330.80
2023-01-12T23:36:30.972Z,99332.00
2023-01-12T23:39:02.488Z,99327.60
2023-01-12T23:41:33.053Z,99322.60
2023-01-12T23:44:03.514Z,99322.40
2023-01-12T23:46:36.227Z,99319.00
2023-01-12T23:49:04.643Z,99320.60
2023-01-12T23:51:32.907Z,99335.40
2023-01-12T23:54:02.247Z,99324.20
2023-01-12T23:56:33.217Z,99334.80
2023-01-12T23:59:01.199Z,99342.00
